sensor_id;sensor_type;location;lat;lon;timestamp;P1;durP1;ratioP1;P2;durP2;ratioP2
3439;SDS011;1733;42.286;22.690;2022-07-06T01:06:17;7.00;;;5.50;;
3439;SDS011;1733;42.286;22.690;2022-07-06T06:52:53;8.25;;;5.53;;
3439;SDS011;1733;42.286;22.690;2022-07-06T06:55:20;7.85;;;6.40;;
3439;SDS011;1733;42.286;22.690;2022-07-06T06:57:47;7.40;;;5.65;;
3439;SDS011;1733;42.286;22.690;2022-07-06T07:00:13;6.30;;;5.70;;
3439;SDS011;1733;42.286;22.690;2022-07-06T07:02:40;7.60;;;5.95;;
3439;SDS011;1733;42.286;22.690;2022-07-06T07:05:07;9.75;;;5.15;;
3439;SDS011;1733;42.286;22.690;2022-07-06T07:07:34;7.50;;;6.43;;
3439;SDS011;1733;42.286;22.690;2022-07-06T07:10:03;12.32;;;8.55;;
3439;SDS011;1733;42.286;22.690;2022-07-06T07:12:30;6.75;;;5.15;;
3439;SDS011;1733;42.286;22.690;2022-07-06T07:14:56;7.68;;;6.32;;
3439;SDS011;1733;42.286;22.690;2022-07-06T07:17:23;7.00;;;4.70;;
3439;SDS011;1733;42.286;22.690;2022-07-06T07:19:49;10.15;;;4.75;;
3439;SDS011;1733;42.286;22.690;2022-07-06T07:22:16;9.57;;;4.97;;
3439;SDS011;1733;42.286;22.690;2022-07-06T07:24:43;8.50;;;5.35;;
3439;SDS011;1733;42.286;22.690;2022-07-06T07:27:10;5.80;;;4.78;;
3439;SDS011;1733;42.286;22.690;2022-07-06T07:29:37;4.72;;;4.20;;
3439;SDS011;1733;42.286;22.690;2022-07-06T07:32:04;4.20;;;3.75;;
3439;SDS011;1733;42.286;22.690;2022-07-06T07:34:30;5.05;;;4.55;;
3439;SDS011;1733;42.286;22.690;2022-07-06T07:36:57;6.80;;;4.80;;
3439;SDS011;1733;42.286;22.690;2022-07-06T07:39:23;6.00;;;4.95;;
3439;SDS011;1733;42.286;22.690;2022-07-06T07:41:50;5.57;;;5.07;;
3439;SDS011;1733;42.286;22.690;2022-07-06T07:44:18;7.50;;;5.15;;
3439;SDS011;1733;42.286;22.690;2022-07-06T07:46:44;5.20;;;4.22;;
3439;SDS011;1733;42.286;22.690;2022-07-06T07:49:11;6.05;;;5.07;;
3439;SDS011;1733;42.286;22.690;2022-07-06T15:13:15;3.67;;;3.47;;
3439;SDS011;1733;42.286;22.690;2022-07-06T15:15:42;4.40;;;4.10;;
3439;SDS011;1733;42.286;22.690;2022-07-06T15:18:08;3.95;;;3.65;;
3439;SDS011;1733;42.286;22.690;2022-07-06T15:20:35;3.47;;;3.28;;
3439;SDS011;1733;42.286;22.690;2022-07-06T15:23:01;3.88;;;3.58;;
3439;SDS011;1733;42.286;22.690;2022-07-06T15:25:28;4.57;;;4.18;;
3439;SDS011;1733;42.286;22.690;2022-07-06T15:27:55;3.78;;;3.53;;
3439;SDS011;1733;42.286;22.690;2022-07-06T15:30:23;4.07;;;3.78;;
3439;SDS011;1733;42.286;22.690;2022-07-06T15:32:50;4.78;;;3.97;;
3439;SDS011;1733;42.286;22.690;2022-07-06T15:35:16;4.10;;;3.80;;
3439;SDS011;1733;42.286;22.690;2022-07-06T15:37:43;4.00;;;3.70;;
3439;SDS011;1733;42.286;22.690;2022-07-06T15:40:09;3.72;;;3.53;;
3439;SDS011;1733;42.286;22.690;2022-07-06T15:42:39;3.78;;;3.58;;
3439;SDS011;1733;42.286;22.690;2022-07-06T15:45:06;4.15;;;3.85;;
3439;SDS011;1733;42.286;22.690;2022-07-06T15:47:34;4.05;;;3.75;;
3439;SDS011;1733;42.286;22.690;2022-07-06T15:50:00;4.22;;;3.92;;
3439;SDS011;1733;42.286;22.690;2022-07-06T15:52:27;4.28;;;3.97;;
3439;SDS011;1733;42.286;22.690;2022-07-06T15:54:54;4.03;;;3.72;;
3439;SDS011;1733;42.286;22.690;2022-07-06T15:57:20;4.07;;;3.75;;
3439;SDS011;1733;42.286;22.690;2022-07-06T15:59:47;4.47;;;4.15;;
3439;SDS011;1733;42.286;22.690;2022-07-06T16:02:13;3.72;;;3.53;;
3439;SDS011;1733;42.286;22.690;2022-07-06T16:04:41;4.88;;;3.95;;
3439;SDS011;1733;42.286;22.690;2022-07-06T16:07:08;9.20;;;4.90;;
3439;SDS011;1733;42.286;22.690;2022-07-06T16:09:34;4.88;;;4.47;;
3439;SDS011;1733;42.286;22.690;2022-07-06T16:12:02;5.05;;;4.70;;
3439;SDS011;1733;42.286;22.690;2022-07-06T16:14:28;5.60;;;5.15;;
3439;SDS011;1733;42.286;22.690;2022-07-06T16:16:55;4.55;;;4.22;;
3439;SDS011;1733;42.286;22.690;2022-07-06T16:19:22;5.13;;;4.75;;
3439;SDS011;1733;42.286;22.690;2022-07-06T16:21:50;5.32;;;4.93;;
3439;SDS011;1733;42.286;22.690;2022-07-06T16:24:17;5.13;;;4.80;;
3439;SDS011;1733;42.286;22.690;2022-07-06T16:26:44;5.78;;;5.28;;
3439;SDS011;1733;42.286;22.690;2022-07-06T16:29:10;5.20;;;4.80;;
3439;SDS011;1733;42.286;22.690;2022-07-06T16:31:37;5.07;;;4.68;;
3439;SDS011;1733;42.286;22.690;2022-07-06T16:34:03;7.03;;;5.97;;
3439;SDS011;1733;42.286;22.690;2022-07-06T16:36:30;7.63;;;6.85;;
3439;SDS011;1733;42.286;22.690;2022-07-06T16:38:58;6.70;;;6.20;;
3439;SDS011;1733;42.286;22.690;2022-07-06T16:41:25;6.18;;;5.68;;
3439;SDS011;1733;42.286;22.690;2022-07-06T16:43:51;7.65;;;6.13;;
3439;SDS011;1733;42.286;22.690;2022-07-06T16:46:18;6.70;;;6.20;;
3439;SDS011;1733;42.286;22.690;2022-07-06T16:48:44;6.13;;;5.60;;
3439;SDS011;1733;42.286;22.690;2022-07-06T16:51:11;7.15;;;6.45;;
3439;SDS011;1733;42.286;22.690;2022-07-06T16:53:37;6.78;;;6.13;;
3439;SDS011;1733;42.286;22.690;2022-07-06T16:56:05;6.13;;;5.65;;
3439;SDS011;1733;42.286;22.690;2022-07-06T16:58:32;6.35;;;5.75;;
3439;SDS011;1733;42.286;22.690;2022-07-06T17:00:59;6.97;;;6.38;;
3439;SDS011;1733;42.286;22.690;2022-07-06T17:03:25;6.68;;;6.07;;
3439;SDS011;1733;42.286;22.690;2022-07-06T17:05:53;6.15;;;5.70;;
3439;SDS011;1733;42.286;22.690;2022-07-06T17:08:20;5.40;;;5.00;;
3439;SDS011;1733;42.286;22.690;2022-07-06T17:10:46;6.50;;;6.00;;
3439;SDS011;1733;42.286;22.690;2022-07-06T17:13:14;5.72;;;5.32;;
3439;SDS011;1733;42.286;22.690;2022-07-06T17:15:41;5.35;;;4.95;;
3439;SDS011;1733;42.286;22.690;2022-07-06T17:18:07;6.15;;;5.65;;
3439;SDS011;1733;42.286;22.690;2022-07-06T17:20:34;5.72;;;5.32;;
3439;SDS011;1733;42.286;22.690;2022-07-06T17:23:01;5.68;;;5.18;;
3439;SDS011;1733;42.286;22.690;2022-07-06T17:25:27;5.75;;;5.25;;
3439;SDS011;1733;42.286;22.690;2022-07-06T17:27:54;5.70;;;5.30;;
3439;SDS011;1733;42.286;22.690;2022-07-06T17:30:22;5.93;;;5.43;;
3439;SDS011;1733;42.286;22.690;2022-07-06T17:32:50;6.53;;;5.93;;
3439;SDS011;1733;42.286;22.690;2022-07-06T17:35:17;6.57;;;6.00;;
3439;SDS011;1733;42.286;22.690;2022-07-06T17:37:43;5.88;;;5.38;;
3439;SDS011;1733;42.286;22.690;2022-07-06T17:40:10;5.35;;;4.95;;
3439;SDS011;1733;42.286;22.690;2022-07-06T17:42:37;5.10;;;4.70;;
3439;SDS011;1733;42.286;22.690;2022-07-06T17:45:04;5.97;;;5.30;;
3439;SDS011;1733;42.286;22.690;2022-07-06T17:47:33;5.13;;;4.72;;
3439;SDS011;1733;42.286;22.690;2022-07-06T17:50:00;6.55;;;5.95;;
3439;SDS011;1733;42.286;22.690;2022-07-06T17:52:26;6.35;;;5.75;;
3439;SDS011;1733;42.286;22.690;2022-07-06T17:54:53;8.25;;;7.15;;
3439;SDS011;1733;42.286;22.690;2022-07-06T17:57:20;5.28;;;4.90;;
3439;SDS011;1733;42.286;22.690;2022-07-06T17:59:46;7.22;;;6.55;;
3439;SDS011;1733;42.286;22.690;2022-07-06T18:02:13;8.68;;;7.75;;
3439;SDS011;1733;42.286;22.690;2022-07-06T18:04:41;7.35;;;6.68;;
3439;SDS011;1733;42.286;22.690;2022-07-06T18:07:07;7.60;;;6.78;;
3439;SDS011;1733;42.286;22.690;2022-07-06T18:09:34;6.20;;;5.80;;
3439;SDS011;1733;42.286;22.690;2022-07-06T18:12:01;6.53;;;6.03;;
3439;SDS011;1733;42.286;22.690;2022-07-06T18:14:27;5.97;;;5.47;;
3439;SDS011;1733;42.286;22.690;2022-07-06T18:16:54;5.50;;;5.10;;
3439;SDS011;1733;42.286;22.690;2022-07-06T18:19:20;5.93;;;5.43;;
3439;SDS011;1733;42.286;22.690;2022-07-06T18:21:48;5.70;;;5.10;;
3439;SDS011;1733;42.286;22.690;2022-07-06T18:24:15;5.70;;;5.30;;
3439;SDS011;1733;42.286;22.690;2022-07-06T18:26:41;6.10;;;5.55;;
3439;SDS011;1733;42.286;22.690;2022-07-06T18:29:08;5.60;;;5.20;;
3439;SDS011;1733;42.286;22.690;2022-07-06T18:31:35;5.10;;;4.70;;
3439;SDS011;1733;42.286;22.690;2022-07-06T18:34:02;9.52;;;6.03;;
3439;SDS011;1733;42.286;22.690;2022-07-06T18:36:29;6.27;;;5.67;;
3439;SDS011;1733;42.286;22.690;2022-07-06T18:38:57;7.60;;;5.85;;
3439;SDS011;1733;42.286;22.690;2022-07-06T18:41:24;6.90;;;6.20;;
3439;SDS011;1733;42.286;22.690;2022-07-06T18:43:50;6.33;;;5.80;;
3439;SDS011;1733;42.286;22.690;2022-07-06T18:46:16;5.30;;;4.80;;
3439;SDS011;1733;42.286;22.690;2022-07-06T18:48:43;5.57;;;5.07;;
3439;SDS011;1733;42.286;22.690;2022-07-06T18:51:10;7.57;;;6.30;;
3439;SDS011;1733;42.286;22.690;2022-07-06T18:53:37;9.30;;;5.63;;
3439;SDS011;1733;42.286;22.690;2022-07-06T18:56:05;5.70;;;5.20;;
3439;SDS011;1733;42.286;22.690;2022-07-06T18:58:32;6.17;;;5.67;;
3439;SDS011;1733;42.286;22.690;2022-07-06T19:00:58;5.80;;;5.30;;
3439;SDS011;1733;42.286;22.690;2022-07-06T19:03:25;6.40;;;5.90;;
3439;SDS011;1733;42.286;22.690;2022-07-06T19:05:51;6.73;;;6.17;;
3439;SDS011;1733;42.286;22.690;2022-07-06T19:08:18;6.63;;;5.60;;
3439;SDS011;1733;42.286;22.690;2022-07-06T19:10:45;5.20;;;4.80;;
3439;SDS011;1733;42.286;22.690;2022-07-06T19:13:13;6.37;;;5.73;;
3439;SDS011;1733;42.286;22.690;2022-07-06T19:15:39;6.00;;;5.53;;
3439;SDS011;1733;42.286;22.690;2022-07-06T19:18:06;6.10;;;4.63;;
3439;SDS011;1733;42.286;22.690;2022-07-06T19:20:32;8.33;;;5.50;;
3439;SDS011;1733;42.286;22.690;2022-07-06T19:22:59;6.73;;;5.37;;
3439;SDS011;1733;42.286;22.690;2022-07-06T19:25:25;9.47;;;5.03;;
3439;SDS011;1733;42.286;22.690;2022-07-06T19:27:52;5.07;;;4.70;;
3439;SDS011;1733;42.286;22.690;2022-07-06T19:30:20;8.30;;;5.20;;
3439;SDS011;1733;42.286;22.690;2022-07-06T19:32:46;8.80;;;6.07;;
3439;SDS011;1733;42.286;22.690;2022-07-06T19:35:13;9.93;;;5.70;;
3439;SDS011;1733;42.286;22.690;2022-07-06T19:37:39;5.87;;;5.20;;
3439;SDS011;1733;42.286;22.690;2022-07-06T19:40:06;5.30;;;4.80;;
3439;SDS011;1733;42.286;22.690;2022-07-06T19:42:33;4.23;;;3.93;;
3439;SDS011;1733;42.286;22.690;2022-07-06T19:44:59;4.27;;;3.80;;
3439;SDS011;1733;42.286;22.690;2022-07-06T19:47:27;4.50;;;4.10;;
3439;SDS011;1733;42.286;22.690;2022-07-06T19:49:54;4.27;;;3.87;;
3439;SDS011;1733;42.286;22.690;2022-07-06T19:52:20;3.80;;;3.50;;
3439;SDS011;1733;42.286;22.690;2022-07-06T19:54:47;3.57;;;3.27;;
3439;SDS011;1733;42.286;22.690;2022-07-06T19:57:14;4.37;;;3.87;;
3439;SDS011;1733;42.286;22.690;2022-07-06T19:59:40;4.13;;;3.83;;
3439;SDS011;1733;42.286;22.690;2022-07-06T20:02:07;5.03;;;4.23;;
3439;SDS011;1733;42.286;22.690;2022-07-06T20:04:35;6.33;;;4.63;;
3439;SDS011;1733;42.286;22.690;2022-07-06T20:07:01;4.20;;;3.90;;
3439;SDS011;1733;42.286;22.690;2022-07-06T20:09:28;5.03;;;4.63;;
3439;SDS011;1733;42.286;22.690;2022-07-06T20:11:54;4.50;;;4.10;;
3439;SDS011;1733;42.286;22.690;2022-07-06T20:14:21;4.50;;;4.10;;
3439;SDS011;1733;42.286;22.690;2022-07-06T20:16:48;4.77;;;4.37;;
3439;SDS011;1733;42.286;22.690;2022-07-06T20:19:14;4.60;;;4.20;;
3439;SDS011;1733;42.286;22.690;2022-07-06T20:21:44;4.30;;;4.00;;
3439;SDS011;1733;42.286;22.690;2022-07-06T20:24:11;3.43;;;3.23;;
3439;SDS011;1733;42.286;22.690;2022-07-06T20:26:38;3.40;;;3.10;;
3439;SDS011;1733;42.286;22.690;2022-07-06T20:29:04;3.83;;;3.53;;
3439;SDS011;1733;42.286;22.690;2022-07-06T20:31:31;4.00;;;3.57;;
3439;SDS011;1733;42.286;22.690;2022-07-06T20:33:57;4.80;;;4.37;;
3439;SDS011;1733;42.286;22.690;2022-07-06T20:36:24;8.70;;;4.30;;
3439;SDS011;1733;42.286;22.690;2022-07-06T20:38:52;4.17;;;3.77;;
3439;SDS011;1733;42.286;22.690;2022-07-06T20:41:19;3.53;;;3.23;;
3439;SDS011;1733;42.286;22.690;2022-07-06T20:43:45;4.90;;;4.40;;
3439;SDS011;1733;42.286;22.690;2022-07-06T20:46:12;12.10;;;6.33;;
3439;SDS011;1733;42.286;22.690;2022-07-06T20:48:38;6.37;;;5.50;;
3439;SDS011;1733;42.286;22.690;2022-07-06T20:51:05;5.00;;;4.60;;
3439;SDS011;1733;42.286;22.690;2022-07-06T20:53:32;3.77;;;3.53;;
3439;SDS011;1733;42.286;22.690;2022-07-06T20:56:00;6.80;;;4.33;;
3439;SDS011;1733;42.286;22.690;2022-07-06T20:58:27;3.30;;;3.10;;
3439;SDS011;1733;42.286;22.690;2022-07-06T21:00:54;3.87;;;3.67;;
3439;SDS011;1733;42.286;22.690;2022-07-06T21:03:20;4.00;;;3.63;;
3439;SDS011;1733;42.286;22.690;2022-07-06T21:05:47;4.40;;;4.03;;
3439;SDS011;1733;42.286;22.690;2022-07-06T21:08:14;4.00;;;3.70;;
3439;SDS011;1733;42.286;22.690;2022-07-06T21:10:40;4.07;;;3.77;;
3439;SDS011;1733;42.286;22.690;2022-07-06T21:13:08;4.07;;;3.73;;
3439;SDS011;1733;42.286;22.690;2022-07-06T21:15:34;4.63;;;4.20;;
3439;SDS011;1733;42.286;22.690;2022-07-06T21:18:01;5.20;;;4.47;;
3439;SDS011;1733;42.286;22.690;2022-07-06T21:20:28;5.50;;;5.00;;
3439;SDS011;1733;42.286;22.690;2022-07-06T21:22:54;4.53;;;4.23;;
3439;SDS011;1733;42.286;22.690;2022-07-06T21:25:21;6.20;;;5.60;;
3439;SDS011;1733;42.286;22.690;2022-07-06T21:27:47;5.70;;;5.20;;
3439;SDS011;1733;42.286;22.690;2022-07-06T21:30:15;5.77;;;4.47;;
3439;SDS011;1733;42.286;22.690;2022-07-06T21:32:42;4.70;;;4.30;;
3439;SDS011;1733;42.286;22.690;2022-07-06T21:35:08;4.30;;;3.90;;
3439;SDS011;1733;42.286;22.690;2022-07-06T21:37:35;4.37;;;3.80;;
3439;SDS011;1733;42.286;22.690;2022-07-06T21:40:01;6.40;;;4.90;;
3439;SDS011;1733;42.286;22.690;2022-07-06T21:42:28;4.33;;;3.93;;
3439;SDS011;1733;42.286;22.690;2022-07-06T21:44:55;6.63;;;6.03;;
3439;SDS011;1733;42.286;22.690;2022-07-06T21:47:23;4.50;;;4.10;;
3439;SDS011;1733;42.286;22.690;2022-07-06T21:49:49;4.20;;;3.90;;
3439;SDS011;1733;42.286;22.690;2022-07-06T21:52:16;5.10;;;4.70;;
3439;SDS011;1733;42.286;22.690;2022-07-06T21:54:43;3.80;;;3.50;;
3439;SDS011;1733;42.286;22.690;2022-07-06T21:57:09;5.57;;;3.90;;
3439;SDS011;1733;42.286;22.690;2022-07-06T21:59:36;5.10;;;4.70;;
3439;SDS011;1733;42.286;22.690;2022-07-06T22:02:03;5.30;;;4.90;;
3439;SDS011;1733;42.286;22.690;2022-07-06T22:04:32;4.60;;;4.30;;
3439;SDS011;1733;42.286;22.690;2022-07-06T22:06:59;4.53;;;4.13;;
3439;SDS011;1733;42.286;22.690;2022-07-06T22:09:26;4.40;;;3.83;;
3439;SDS011;1733;42.286;22.690;2022-07-06T22:11:55;4.10;;;3.80;;
3439;SDS011;1733;42.286;22.690;2022-07-06T22:14:22;4.83;;;4.40;;
3439;SDS011;1733;42.286;22.690;2022-07-06T22:16:48;4.33;;;3.93;;
3439;SDS011;1733;42.286;22.690;2022-07-06T22:19:15;4.87;;;4.47;;
3439;SDS011;1733;42.286;22.690;2022-07-06T22:21:43;5.10;;;4.60;;
3439;SDS011;1733;42.286;22.690;2022-07-06T22:24:10;4.03;;;3.63;;
3439;SDS011;1733;42.286;22.690;2022-07-06T22:26:36;5.00;;;4.60;;
3439;SDS011;1733;42.286;22.690;2022-07-06T22:29:04;4.70;;;4.30;;
3439;SDS011;1733;42.286;22.690;2022-07-06T22:31:31;4.97;;;4.57;;
3439;SDS011;1733;42.286;22.690;2022-07-06T22:33:58;4.43;;;4.13;;
3439;SDS011;1733;42.286;22.690;2022-07-06T22:36:25;4.83;;;4.40;;
3439;SDS011;1733;42.286;22.690;2022-07-06T22:38:54;4.70;;;4.27;;
3439;SDS011;1733;42.286;22.690;2022-07-06T22:41:21;5.07;;;4.57;;
3439;SDS011;1733;42.286;22.690;2022-07-06T22:43:49;4.60;;;4.20;;
3439;SDS011;1733;42.286;22.690;2022-07-06T22:46:16;4.00;;;3.70;;
3439;SDS011;1733;42.286;22.690;2022-07-06T22:48:43;5.83;;;4.90;;
3439;SDS011;1733;42.286;22.690;2022-07-06T22:51:10;4.70;;;4.40;;
3439;SDS011;1733;42.286;22.690;2022-07-06T22:53:36;5.37;;;4.90;;
3439;SDS011;1733;42.286;22.690;2022-07-06T22:56:05;4.53;;;4.13;;
3439;SDS011;1733;42.286;22.690;2022-07-06T22:58:32;4.57;;;4.27;;
3439;SDS011;1733;42.286;22.690;2022-07-06T23:00:58;5.07;;;4.67;;
3439;SDS011;1733;42.286;22.690;2022-07-06T23:03:25;4.03;;;3.73;;
3439;SDS011;1733;42.286;22.690;2022-07-06T23:05:52;5.10;;;4.60;;
3439;SDS011;1733;42.286;22.690;2022-07-06T23:08:18;4.60;;;4.30;;
3439;SDS011;1733;42.286;22.690;2022-07-06T23:10:45;6.10;;;4.43;;
3439;SDS011;1733;42.286;22.690;2022-07-06T23:13:13;4.33;;;4.00;;
3439;SDS011;1733;42.286;22.690;2022-07-06T23:15:40;5.60;;;5.10;;
3439;SDS011;1733;42.286;22.690;2022-07-06T23:18:06;5.27;;;4.27;;
3439;SDS011;1733;42.286;22.690;2022-07-06T23:20:33;5.33;;;4.93;;
3439;SDS011;1733;42.286;22.690;2022-07-06T23:23:00;5.50;;;4.80;;
3439;SDS011;1733;42.286;22.690;2022-07-06T23:25:26;5.67;;;5.17;;
3439;SDS011;1733;42.286;22.690;2022-07-06T23:27:53;6.60;;;6.00;;
3439;SDS011;1733;42.286;22.690;2022-07-06T23:30:21;5.03;;;4.63;;
3439;SDS011;1733;42.286;22.690;2022-07-06T23:32:47;5.63;;;5.20;;
3439;SDS011;1733;42.286;22.690;2022-07-06T23:35:14;8.10;;;7.30;;
3439;SDS011;1733;42.286;22.690;2022-07-06T23:37:43;6.87;;;6.20;;
3439;SDS011;1733;42.286;22.690;2022-07-06T23:40:11;5.10;;;4.60;;
3439;SDS011;1733;42.286;22.690;2022-07-06T23:42:37;6.53;;;5.87;;
3439;SDS011;1733;42.286;22.690;2022-07-06T23:45:04;4.37;;;3.97;;
3439;SDS011;1733;42.286;22.690;2022-07-06T23:47:33;5.13;;;4.73;;
3439;SDS011;1733;42.286;22.690;2022-07-06T23:49:59;7.60;;;5.93;;
3439;SDS011;1733;42.286;22.690;2022-07-06T23:52:26;5.03;;;4.53;;
3439;SDS011;1733;42.286;22.690;2022-07-06T23:54:53;4.97;;;4.43;;
3439;SDS011;1733;42.286;22.690;2022-07-06T23:57:20;6.10;;;5.00;;
3439;SDS011;1733;42.286;22.690;2022-07-06T23:59:46;5.67;;;5.17;;
